createdAt,value
2022-10-03T00:01:17.793Z,17.23
2022-10-03T00:04:01.353Z,11.87
2022-10-03T00:06:42.923Z,28.33
2022-10-03T00:09:29.767Z,17.37
2022-10-03T00:12:04.635Z,14.63
2022-10-03T00:14:44.348Z,17.27
2022-10-03T00:17:21.350Z,17.10
2022-10-03T00:20:14.202Z,14.63
2022-10-03T00:22:55.854Z,18.30
2022-10-03T00:25:41.364Z,15.40
2022-10-03T00:28:13.807Z,16.67
2022-10-03T00:30:46.939Z,18.77
2022-10-03T00:33:28.180Z,18.70
2022-10-03T00:36:04.539Z,16.33
2022-10-03T00:38:31.118Z,22.30
2022-10-03T00:41:20.415Z,16.80
2022-10-03T00:44:05.849Z,14.03
2022-10-03T00:46:38.410Z,17.93
2022-10-03T00:49:17.247Z,15.00
2022-10-03T00:52:04.057Z,16.00
2022-10-03T00:54:39.906Z,19.63
2022-10-03T00:57:24.634Z,21.60
2022-10-03T00:59:51.167Z,19.63
2022-10-03T01:02:38.063Z,14.23
2022-10-03T01:05:23.437Z,16.20
2022-10-03T01:08:10.623Z,20.37
2022-10-03T01:10:52.436Z,15.13
2022-10-03T01:13:27.935Z,18.03
2022-10-03T01:16:08.152Z,18.10
2022-10-03T01:18:46.787Z,17.93
2022-10-03T01:21:21.895Z,19.03
2022-10-03T01:24:07.083Z,14.93
2022-10-03T01:26:49.139Z,18.90
2022-10-03T01:29:37.511Z,16.73
2022-10-03T01:32:22.986Z,15.70
2022-10-03T01:34:52.262Z,13.77
2022-10-03T01:37:40.916Z,17.73
2022-10-03T01:40:08.998Z,20.63
2022-10-03T01:42:39.039Z,16.70
2022-10-03T01:45:26.184Z,16.50
2022-10-03T01:48:00.610Z,23.13
2022-10-03T01:50:30.327Z,15.97
2022-10-03T01:53:04.004Z,17.10
2022-10-03T01:55:35.467Z,15.57
2022-10-03T01:58:05.192Z,21.13
2022-10-03T02:00:41.492Z,16.43
2022-10-03T02:03:12.387Z,20.17
2022-10-03T02:05:48.303Z,16.97
2022-10-03T02:08:50.496Z,16.10
2022-10-03T02:11:29.410Z,16.33
2022-10-03T02:14:16.266Z,14.23
2022-10-03T02:16:44.359Z,15.93
2022-10-03T02:19:23.020Z,17.47
2022-10-03T02:21:57.350Z,13.40
2022-10-03T02:24:32.520Z,23.80
2022-10-03T02:27:18.026Z,16.97
2022-10-03T02:29:51.464Z,15.67
2022-10-03T02:32:36.757Z,15.83
2022-10-03T02:35:21.964Z,18.17
2022-10-03T02:38:07.339Z,20.83
2022-10-03T02:40:52.573Z,20.37
2022-10-03T02:43:43.254Z,15.33
2022-10-03T02:46:09.868Z,24.43
2022-10-03T02:48:36.493Z,22.97
2022-10-03T02:51:26.800Z,20.03
2022-10-03T02:54:03.390Z,20.43
2022-10-03T02:56:49.869Z,17.63
2022-10-03T02:59:32.123Z,26.47
2022-10-03T03:02:04.810Z,21.83
2022-10-03T03:04:50.282Z,23.10
2022-10-03T03:07:26.600Z,19.73
2022-10-03T03:10:07.173Z,24.07
2022-10-03T03:12:44.297Z,19.33
2022-10-03T03:15:49.272Z,27.10
2022-10-03T03:18:28.077Z,23.03
2022-10-03T03:20:54.573Z,19.67
2022-10-03T03:23:40.300Z,22.37
2022-10-03T03:26:28.137Z,21.53
2022-10-03T03:29:13.692Z,25.30
2022-10-03T03:32:03.003Z,26.67
2022-10-03T03:34:34.886Z,17.80
2022-10-03T03:37:04.479Z,21.10
2022-10-03T03:39:31.030Z,26.10
2022-10-03T03:42:16.563Z,21.70
2022-10-03T03:44:45.857Z,23.70
2022-10-03T03:47:24.283Z,23.67
2022-10-03T03:50:07.844Z,26.13
2022-10-03T03:52:53.130Z,19.60
2022-10-03T03:55:28.285Z,20.67
2022-10-03T03:58:14.110Z,24.77
2022-10-03T04:01:03.557Z,24.23
2022-10-03T04:03:48.808Z,22.13
2022-10-03T04:06:22.617Z,20.90
2022-10-03T04:09:08.252Z,26.87
2022-10-03T04:11:38.032Z,24.67
2022-10-03T04:14:07.576Z,20.47
2022-10-03T04:16:55.853Z,22.53
2022-10-03T04:19:41.127Z,19.17
2022-10-03T04:22:14.934Z,23.10
2022-10-03T04:25:01.367Z,22.73
2022-10-03T04:27:51.635Z,21.23
2022-10-03T04:30:29.877Z,24.03
2022-10-03T04:32:57.307Z,22.83
2022-10-03T04:35:42.903Z,21.73
2022-10-03T04:38:12.301Z,30.77
2022-10-03T04:40:45.057Z,21.03
2022-10-03T04:43:31.142Z,27.63
2022-10-03T04:46:04.742Z,24.53
2022-10-03T04:48:54.396Z,20.80
2022-10-03T04:51:32.868Z,20.87
2022-10-03T04:54:16.267Z,22.20
2022-10-03T04:56:42.800Z,32.37
2022-10-03T04:59:28.148Z,27.20
2022-10-03T05:02:21.098Z,22.97
2022-10-03T05:04:58.319Z,27.30
2022-10-03T05:07:45.168Z,19.90
2022-10-03T05:10:17.855Z,19.40
2022-10-03T05:13:03.267Z,19.63
2022-10-03T05:15:33.907Z,23.47
2022-10-03T05:18:03.222Z,22.87
2022-10-03T05:20:35.678Z,22.17
2022-10-03T05:23:20.818Z,23.13
2022-10-03T05:25:55.162Z,24.83
2022-10-03T05:28:22.387Z,18.93
2022-10-03T05:30:54.233Z,20.83
2022-10-03T05:33:26.900Z,21.90
2022-10-03T05:36:06.181Z,24.03
2022-10-03T05:38:42.100Z,26.37
2022-10-03T05:41:11.494Z,27.90
2022-10-03T05:43:38.414Z,28.93
2022-10-03T05:46:25.299Z,22.20
2022-10-03T05:49:05.864Z,24.47
2022-10-03T05:51:56.552Z,27.53
2022-10-03T05:54:42.038Z,22.23
2022-10-03T05:57:27.206Z,22.13
2022-10-03T06:00:12.400Z,22.43
2022-10-03T06:02:39.075Z,25.80
2022-10-03T06:05:13.969Z,24.57
2022-10-03T06:07:55.925Z,23.63
2022-10-03T06:10:41.424Z,20.23
2022-10-03T06:13:31.275Z,20.10
2022-10-03T06:15:59.755Z,22.23
2022-10-03T06:18:34.857Z,20.67
2022-10-03T06:21:12.820Z,22.33
2022-10-03T06:23:58.528Z,22.80
2022-10-03T06:26:40.368Z,26.10
2022-10-03T06:29:35.780Z,28.00
2022-10-03T06:32:02.316Z,29.57
2022-10-03T06:34:48.761Z,26.73
2022-10-03T06:37:34.327Z,26.50
2022-10-03T06:40:19.400Z,23.23
2022-10-03T06:42:45.984Z,23.20
2022-10-03T06:45:39.659Z,23.00
2022-10-03T06:48:25.066Z,25.43
2022-10-03T06:50:51.598Z,21.23
2022-10-03T06:53:27.309Z,23.40
2022-10-03T06:55:56.611Z,21.57
2022-10-03T06:58:32.032Z,21.30
2022-10-03T07:00:59.184Z,17.17
2022-10-03T07:03:25.814Z,25.80
2022-10-03T07:06:01.357Z,21.93
2022-10-03T07:08:58.241Z,20.57
2022-10-03T07:11:39.282Z,23.13
2022-10-03T07:14:25.203Z,23.90
2022-10-03T07:17:04.691Z,22.80
2022-10-03T07:19:36.777Z,25.00
2022-10-03T07:22:15.028Z,19.37
2022-10-03T07:25:00.424Z,18.53
2022-10-03T07:27:27.058Z,17.57
2022-10-03T07:30:03.557Z,17.30
2022-10-03T07:32:48.877Z,17.60
2022-10-03T07:35:18.748Z,15.87
2022-10-03T07:38:14.253Z,12.43
2022-10-03T07:40:53.084Z,16.27
2022-10-03T07:43:25.898Z,12.20
2022-10-03T07:46:11.071Z,11.83
2022-10-03T07:48:40.435Z,16.43
2022-10-03T07:51:24.100Z,12.27
2022-10-03T07:53:50.699Z,15.17
2022-10-03T07:56:17.700Z,15.33
2022-10-03T07:59:04.345Z,19.47
2022-10-03T08:01:30.921Z,15.73
2022-10-03T08:04:16.068Z,15.13
2022-10-03T08:06:44.905Z,13.57
2022-10-03T08:09:11.936Z,15.60
2022-10-03T08:11:38.776Z,15.50
2022-10-03T08:14:14.531Z,15.40
2022-10-03T08:16:59.368Z,13.50
2022-10-03T08:19:25.900Z,11.83
2022-10-03T08:22:05.148Z,14.37
2022-10-03T08:24:46.746Z,10.87
2022-10-03T08:27:31.921Z,12.60
2022-10-03T08:30:20.339Z,13.03
2022-10-03T08:32:56.355Z,14.47
2022-10-03T08:35:41.653Z,13.03
2022-10-03T08:38:23.887Z,15.80
2022-10-03T08:40:56.711Z,10.53
2022-10-03T08:43:50.487Z,12.93
2022-10-03T08:46:20.117Z,14.77
2022-10-03T08:48:46.720Z,11.87
2022-10-03T08:51:16.374Z,10.60
2022-10-03T08:53:58.160Z,10.47
2022-10-03T08:56:32.363Z,8.90
2022-10-03T08:59:09.343Z,9.73
2022-10-03T09:01:35.974Z,13.33
2022-10-03T09:04:17.995Z,8.97
2022-10-03T09:07:16.486Z,9.40
2022-10-03T09:10:01.724Z,6.87
2022-10-03T09:12:28.560Z,10.43
2022-10-03T09:14:58.204Z,10.37
2022-10-03T09:17:27.605Z,11.10
2022-10-03T09:20:08.304Z,6.87
2022-10-03T09:22:54.435Z,10.17
2022-10-03T09:25:44.921Z,10.63
2022-10-03T09:28:19.159Z,8.43
2022-10-03T09:31:06.335Z,10.23
2022-10-03T09:33:51.582Z,6.90
2022-10-03T09:36:40.041Z,6.90
2022-10-03T09:39:30.062Z,10.47
2022-10-03T09:42:11.543Z,6.87
2022-10-03T09:44:56.754Z,5.30
2022-10-03T09:47:37.666Z,6.33
2022-10-03T09:50:19.710Z,7.53
2022-10-03T09:53:05.581Z,6.90
2022-10-03T09:55:40.672Z,5.57
2022-10-03T09:58:10.234Z,7.87
2022-10-03T10:00:40.059Z,7.97
2022-10-03T10:03:35.611Z,5.20
2022-10-03T10:06:24.689Z,6.00
2022-10-03T10:09:10.181Z,6.63
2022-10-03T10:12:01.012Z,8.73
2022-10-03T10:14:36.151Z,6.30
2022-10-03T10:17:21.700Z,3.63
2022-10-03T10:20:07.444Z,3.57
2022-10-03T10:22:52.851Z,5.27
2022-10-03T10:25:25.354Z,2.97
2022-10-03T10:28:11.636Z,3.67
2022-10-03T10:30:38.269Z,4.90
2022-10-03T10:33:24.323Z,7.80
2022-10-03T10:35:59.944Z,6.07
2022-10-03T10:38:26.509Z,6.67
2022-10-03T10:41:11.528Z,3.70
2022-10-03T10:43:57.458Z,5.77
2022-10-03T10:46:24.381Z,5.73
2022-10-03T10:49:09.571Z,4.20
2022-10-03T10:51:54.715Z,5.47
2022-10-03T10:54:39.917Z,4.17
2022-10-03T10:57:15.486Z,6.10
2022-10-03T11:00:00.826Z,6.40
2022-10-03T11:02:43.770Z,5.83
2022-10-03T11:05:16.613Z,5.50
2022-10-03T11:07:53.826Z,8.80
2022-10-03T11:10:31.181Z,3.37
2022-10-03T11:12:59.020Z,4.43
2022-10-03T11:15:44.040Z,5.67
2022-10-03T11:18:10.732Z,5.97
2022-10-03T11:20:56.587Z,5.13
2022-10-03T11:23:42.313Z,5.13
2022-10-03T11:26:20.892Z,6.57
2022-10-03T11:29:06.484Z,2.67
2022-10-03T11:31:51.980Z,3.67
2022-10-03T11:34:37.514Z,4.70
2022-10-03T11:37:04.202Z,2.43
2022-10-03T11:39:33.899Z,3.83
2022-10-03T11:42:00.547Z,4.80
2022-10-03T11:44:46.956Z,4.53
2022-10-03T11:47:25.495Z,2.10
2022-10-03T11:50:10.601Z,2.77
2022-10-03T11:52:52.272Z,3.83
2022-10-03T11:55:33.275Z,3.50
2022-10-03T11:57:59.874Z,4.83
2022-10-03T12:00:29.154Z,1.90
2022-10-03T12:03:14.412Z,2.17
2022-10-03T12:05:49.784Z,2.53
2022-10-03T12:08:45.135Z,4.80
2022-10-03T12:11:29.307Z,4.60
2022-10-03T12:14:10.923Z,2.57
2022-10-03T12:16:38.329Z,4.20
2022-10-03T12:19:17.406Z,3.77
2022-10-03T12:21:55.203Z,3.07
2022-10-03T12:24:26.420Z,3.97
2022-10-03T12:26:55.844Z,2.80
2022-10-03T12:29:25.172Z,4.37
2022-10-03T12:32:01.617Z,3.40
2022-10-03T12:34:34.123Z,5.17
2022-10-03T12:37:24.590Z,2.63
2022-10-03T12:40:10.853Z,4.30
2022-10-03T12:42:56.684Z,4.20
2022-10-03T12:45:27.006Z,3.33
2022-10-03T12:48:08.879Z,5.37
2022-10-03T12:50:45.970Z,2.93
2022-10-03T12:53:15.861Z,5.10
2022-10-03T12:55:51.586Z,3.67
2022-10-03T12:58:24.209Z,3.50
2022-10-03T13:01:20.035Z,2.63
2022-10-03T13:03:52.452Z,5.17
2022-10-03T13:06:19.063Z,3.50
2022-10-03T13:08:56.449Z,5.53
2022-10-03T13:11:26.140Z,3.67
2022-10-03T13:13:55.870Z,3.10
2022-10-03T13:16:25.513Z,3.03
2022-10-03T13:19:12.991Z,3.50
2022-10-03T13:22:03.693Z,2.73
2022-10-03T13:24:42.197Z,4.47
2022-10-03T13:27:17.150Z,3.50
2022-10-03T13:29:45.871Z,3.87
2022-10-03T13:32:18.568Z,4.33
2022-10-03T13:35:23.797Z,3.67
2022-10-03T13:38:09.251Z,4.47
2022-10-03T13:40:38.001Z,3.43
2022-10-03T13:43:10.230Z,2.67
2022-10-03T13:45:40.148Z,4.07
2022-10-03T13:48:23.953Z,5.50
2022-10-03T13:50:58.861Z,4.90
2022-10-03T13:53:43.350Z,3.63
2022-10-03T13:56:21.290Z,3.10
2022-10-03T13:58:59.822Z,5.87
2022-10-03T14:01:43.102Z,6.20
2022-10-03T14:04:26.362Z,4.30
2022-10-03T14:07:00.476Z,4.33
2022-10-03T14:09:50.310Z,4.10
2022-10-03T14:12:38.079Z,3.10
2022-10-03T14:15:16.939Z,5.57
2022-10-03T14:17:50.453Z,4.77
2022-10-03T14:20:37.306Z,2.90
2022-10-03T14:23:16.263Z,5.10
2022-10-03T14:25:58.129Z,2.63
2022-10-03T14:28:37.163Z,4.70
2022-10-03T14:31:10.030Z,4.77
2022-10-03T14:33:43.802Z,3.30
2022-10-03T14:36:10.368Z,2.57
2022-10-03T14:39:02.060Z,2.47
2022-10-03T14:41:34.937Z,3.67
2022-10-03T14:44:12.734Z,5.77
2022-10-03T14:46:46.965Z,3.27
2022-10-03T14:49:51.027Z,3.70
2022-10-03T14:52:36.249Z,6.93
2022-10-03T14:55:09.165Z,3.13
2022-10-03T14:57:52.900Z,4.33
2022-10-03T15:00:34.677Z,4.63
2022-10-03T15:03:13.578Z,3.90
2022-10-03T15:05:51.560Z,5.27
2022-10-03T15:08:19.071Z,1.67
2022-10-03T15:10:46.300Z,3.93
2022-10-03T15:13:14.521Z,5.13
2022-10-03T15:15:41.828Z,3.97
2022-10-03T15:18:14.731Z,5.20
2022-10-03T15:20:42.532Z,3.20
2022-10-03T15:23:23.268Z,4.77
2022-10-03T15:25:53.948Z,4.27
2022-10-03T15:28:27.086Z,3.30
2022-10-03T15:30:55.170Z,6.23
2022-10-03T15:33:31.289Z,25.27
2022-10-03T15:36:07.519Z,6.20
2022-10-03T15:38:38.114Z,7.73
2022-10-03T15:41:28.167Z,5.50
2022-10-03T15:43:57.157Z,4.80
2022-10-03T15:46:35.245Z,8.40
2022-10-03T15:49:07.568Z,4.03
2022-10-03T15:51:36.302Z,3.97
2022-10-03T15:54:05.601Z,8.97
2022-10-03T15:56:35.332Z,4.13
2022-10-03T15:59:06.015Z,4.30
2022-10-03T16:01:37.050Z,10.70
2022-10-03T16:04:08.494Z,26.47
2022-10-03T16:06:53.587Z,66.90
2022-10-03T16:09:29.059Z,50.53
2022-10-03T16:12:04.850Z,34.77
2022-10-03T16:14:41.513Z,6.43
2022-10-03T16:17:34.911Z,13.73
2022-10-03T16:20:16.621Z,10.37
2022-10-03T16:22:45.513Z,6.73
2022-10-03T16:25:32.404Z,48.77
2022-10-03T16:28:03.853Z,27.10
2022-10-03T16:30:38.662Z,14.70
2022-10-03T16:33:17.821Z,21.97
2022-10-03T16:35:55.566Z,21.07
2022-10-03T16:38:38.708Z,11.27
2022-10-03T16:41:12.451Z,33.53
2022-10-03T16:43:39.340Z,42.17
2022-10-03T16:46:11.934Z,21.83
2022-10-03T16:49:01.486Z,17.03
2022-10-03T16:51:55.518Z,7.27
2022-10-03T16:54:23.008Z,7.50
2022-10-03T16:56:57.499Z,7.90
2022-10-03T16:59:25.006Z,5.07
2022-10-03T17:01:54.364Z,9.93
2022-10-03T17:04:23.186Z,5.43
2022-10-03T17:06:55.341Z,5.40
2022-10-03T17:09:21.951Z,5.00
2022-10-03T17:11:52.289Z,7.33
2022-10-03T17:14:20.093Z,5.17
2022-10-03T17:16:50.791Z,4.53
2022-10-03T17:19:20.660Z,7.33
2022-10-03T17:21:52.461Z,7.27
2022-10-03T17:24:24.635Z,8.13
2022-10-03T17:26:54.133Z,4.67
2022-10-03T17:29:42.274Z,9.87
2022-10-03T17:32:21.091Z,4.20
2022-10-03T17:34:51.405Z,7.30
2022-10-03T17:37:46.243Z,6.93
2022-10-03T17:40:19.161Z,8.03
2022-10-03T17:42:47.720Z,7.47
2022-10-03T17:45:16.686Z,5.90
2022-10-03T17:47:56.302Z,5.73
2022-10-03T17:50:36.770Z,6.23
2022-10-03T17:53:04.139Z,6.57
2022-10-03T17:55:33.466Z,8.90
2022-10-03T17:58:03.845Z,7.90
2022-10-03T18:00:33.907Z,10.10
2022-10-03T18:03:09.569Z,8.63
2022-10-03T18:05:39.601Z,8.63
2022-10-03T18:08:08.183Z,7.80
2022-10-03T18:10:36.276Z,11.87
2022-10-03T18:13:07.147Z,11.53
2022-10-03T18:15:41.137Z,10.17
2022-10-03T18:18:07.951Z,6.50
2022-10-03T18:20:40.736Z,7.40
2022-10-03T18:23:10.233Z,6.33
2022-10-03T18:26:18.529Z,7.23
2022-10-03T18:28:58.043Z,5.23
2022-10-03T18:31:25.209Z,5.37
2022-10-03T18:33:56.198Z,7.13
2022-10-03T18:36:25.168Z,5.60
2022-10-03T18:38:53.276Z,5.20
2022-10-03T18:41:19.880Z,7.10
2022-10-03T18:43:52.086Z,8.47
2022-10-03T18:46:20.955Z,9.30
2022-10-03T18:49:09.267Z,5.70
2022-10-03T18:51:39.073Z,8.67
2022-10-03T18:54:09.853Z,8.27
2022-10-03T18:56:37.543Z,5.87
2022-10-03T18:59:04.188Z,5.67
2022-10-03T19:01:37.376Z,6.23
2022-10-03T19:04:13.111Z,10.27
2022-10-03T19:06:45.554Z,6.20
2022-10-03T19:09:22.481Z,6.70
2022-10-03T19:12:15.178Z,7.20
2022-10-03T19:15:00.770Z,6.23
2022-10-03T19:17:27.637Z,7.50
2022-10-03T19:19:58.976Z,9.53
2022-10-03T19:22:31.679Z,7.90
2022-10-03T19:24:59.474Z,8.57
2022-10-03T19:27:58.834Z,7.43
2022-10-03T19:30:26.856Z,12.83
2022-10-03T19:32:57.069Z,15.77
2022-10-03T19:35:24.558Z,13.37
2022-10-03T19:37:56.193Z,10.30
2022-10-03T19:40:42.464Z,8.30
2022-10-03T19:43:21.146Z,7.87
2022-10-03T19:45:49.846Z,5.83
2022-10-03T19:48:18.561Z,9.90
2022-10-03T19:50:45.477Z,7.73
2022-10-03T19:53:16.002Z,5.17
2022-10-03T19:55:44.322Z,9.23
2022-10-03T19:58:10.989Z,8.80
2022-10-03T20:00:39.414Z,6.80
2022-10-03T20:03:10.918Z,4.73
2022-10-03T20:06:00.832Z,6.13
2022-10-03T20:08:45.175Z,7.33
2022-10-03T20:11:20.954Z,5.97
2022-10-03T20:13:48.051Z,7.73
2022-10-03T20:16:15.891Z,6.83
2022-10-03T20:18:43.677Z,4.77
2022-10-03T20:21:11.530Z,5.73
2022-10-03T20:23:40.874Z,6.57
2022-10-03T20:26:10.872Z,6.30
2022-10-03T20:28:43.646Z,6.57
2022-10-03T20:31:11.029Z,7.43
2022-10-03T20:33:37.920Z,7.03
2022-10-03T20:36:10.384Z,3.77
2022-10-03T20:38:55.606Z,7.40
2022-10-03T20:41:29.888Z,5.37
2022-10-03T20:44:02.240Z,6.60
2022-10-03T20:46:37.920Z,5.70
2022-10-03T20:49:20.060Z,7.17
2022-10-03T20:51:53.133Z,6.17
2022-10-03T20:54:24.362Z,8.10
2022-10-03T20:56:59.687Z,9.10
2022-10-03T20:59:33.855Z,7.27
2022-10-03T21:02:03.172Z,9.00
2022-10-03T21:04:38.849Z,9.97
2022-10-03T21:07:17.736Z,10.43
2022-10-03T21:09:53.465Z,8.57
2022-10-03T21:12:23.776Z,5.83
2022-10-03T21:15:00.544Z,7.67
2022-10-03T21:17:27.676Z,7.23
2022-10-03T21:19:57.426Z,7.97
2022-10-03T21:22:26.693Z,7.90
2022-10-03T21:24:56.517Z,8.60
2022-10-03T21:27:23.820Z,8.10
2022-10-03T21:29:55.007Z,8.77
2022-10-03T21:32:24.380Z,5.57
2022-10-03T21:35:09.662Z,3.93
2022-10-03T21:37:36.290Z,6.63
2022-10-03T21:40:02.889Z,5.27
2022-10-03T21:42:41.905Z,6.03
2022-10-03T21:45:28.885Z,8.47
2022-10-03T21:48:05.433Z,7.20
2022-10-03T21:50:35.603Z,7.03
2022-10-03T21:53:02.153Z,6.57
2022-10-03T21:55:50.846Z,6.13
2022-10-03T21:58:21.999Z,5.53
2022-10-03T22:01:05.090Z,6.43
2022-10-03T22:03:52.620Z,5.73
2022-10-03T22:06:22.752Z,5.20
2022-10-03T22:08:49.665Z,8.93
2022-10-03T22:11:28.568Z,4.63
2022-10-03T22:14:08.784Z,5.63
2022-10-03T22:16:46.647Z,6.60
2022-10-03T22:19:19.357Z,4.93
2022-10-03T22:21:45.895Z,5.10
2022-10-03T22:24:33.192Z,6.93
2022-10-03T22:27:04.840Z,5.13
2022-10-03T22:29:45.810Z,6.73
2022-10-03T22:32:19.434Z,4.43
2022-10-03T22:35:00.838Z,7.30
2022-10-03T22:37:27.816Z,4.13
2022-10-03T22:39:57.780Z,7.87
2022-10-03T22:42:24.884Z,6.13
2022-10-03T22:44:52.646Z,3.67
2022-10-03T22:47:21.457Z,3.97
2022-10-03T22:49:48.908Z,7.03
2022-10-03T22:52:21.603Z,7.10
2022-10-03T22:54:49.353Z,4.43
2022-10-03T22:57:16.139Z,4.47
2022-10-03T22:59:46.933Z,5.83
2022-10-03T23:02:14.021Z,7.57
2022-10-03T23:04:44.780Z,7.70
2022-10-03T23:07:20.262Z,5.83
2022-10-03T23:09:47.799Z,6.87
2022-10-03T23:12:15.463Z,4.07
2022-10-03T23:14:45.294Z,5.53
2022-10-03T23:17:28.205Z,4.13
2022-10-03T23:20:00.749Z,5.67
2022-10-03T23:22:29.760Z,5.27
2022-10-03T23:25:05.889Z,6.43
2022-10-03T23:27:46.520Z,5.63
2022-10-03T23:30:13.163Z,6.27
2022-10-03T23:32:49.020Z,7.03
2022-10-03T23:35:30.652Z,5.97
2022-10-03T23:38:00.780Z,7.20
2022-10-03T23:40:29.071Z,6.80
2022-10-03T23:43:01.284Z,6.93
2022-10-03T23:45:29.583Z,4.97
2022-10-03T23:48:01.819Z,4.17
2022-10-03T23:50:41.155Z,6.90
2022-10-03T23:53:14.969Z,5.70
2022-10-03T23:55:43.427Z,6.63
2022-10-03T23:58:17.140Z,4.67
